createdAt,value
2019-05-26T00:02:30.128Z,67.48
2019-05-26T00:05:34.209Z,67.43
2019-05-26T00:08:38.878Z,67.25
2019-05-26T00:11:43.204Z,67.20
2019-05-26T00:14:47.603Z,67.18
2019-05-26T00:17:52.213Z,66.96
2019-05-26T00:20:56.220Z,66.76
2019-05-26T00:24:00.244Z,66.44
2019-05-26T00:27:04.630Z,66.29
2019-05-26T00:30:09.932Z,66.07
2019-05-26T00:33:14.177Z,65.77
2019-05-26T00:36:18.406Z,65.67
2019-05-26T00:39:22.425Z,65.68
2019-05-26T00:42:26.556Z,65.50
2019-05-26T00:45:30.849Z,65.57
2019-05-26T00:48:34.907Z,65.49
2019-05-26T00:51:39.331Z,65.71
2019-05-26T00:54:44.335Z,65.80
2019-05-26T00:57:48.660Z,66.03
2019-05-26T01:00:52.679Z,66.01
2019-05-26T01:03:56.688Z,66.15
2019-05-26T01:07:00.768Z,66.40
2019-05-26T01:10:05.265Z,66.59
2019-05-26T01:13:09.861Z,66.87
2019-05-26T01:16:13.885Z,67.15
2019-05-26T01:19:18.531Z,67.46
2019-05-26T01:22:23.132Z,67.53
2019-05-26T01:25:27.162Z,67.81
2019-05-26T01:28:31.112Z,68.03
2019-05-26T01:31:35.120Z,68.16
2019-05-26T01:34:39.403Z,68.08
2019-05-26T01:37:43.709Z,68.16
2019-05-26T01:40:48.152Z,68.36
2019-05-26T01:43:52.469Z,68.52
2019-05-26T01:46:57.203Z,68.59
2019-05-26T01:50:01.247Z,68.73
2019-05-26T01:53:06.263Z,69.01
2019-05-26T01:56:10.892Z,68.86
2019-05-26T01:59:14.988Z,69.04
2019-05-26T02:02:19.356Z,69.16
2019-05-26T02:05:23.760Z,69.20
2019-05-26T02:08:38.932Z,69.30
2019-05-26T02:11:33.446Z,69.41
2019-05-26T02:14:37.711Z,69.47
2019-05-26T02:17:41.638Z,69.41
2019-05-26T02:20:45.907Z,69.63
2019-05-26T02:23:49.824Z,69.72
2019-05-26T02:26:53.762Z,69.79
2019-05-26T02:29:57.808Z,69.82
2019-05-26T02:33:01.752Z,69.89
2019-05-26T02:36:06.108Z,69.99
2019-05-26T02:39:10.494Z,70.16
2019-05-26T02:42:14.712Z,70.12
2019-05-26T02:45:21.165Z,70.10
2019-05-26T02:48:25.213Z,70.08
2019-05-26T02:51:29.296Z,70.09
2019-05-26T02:54:33.638Z,70.33
2019-05-26T02:57:37.993Z,70.37
2019-05-26T03:00:44.392Z,70.41
2019-05-26T03:03:48.964Z,70.47
2019-05-26T03:06:53.888Z,70.58
2019-05-26T03:09:59.456Z,70.64
2019-05-26T03:13:05.191Z,70.59
2019-05-26T03:16:11.350Z,70.75
2019-05-26T03:19:17.654Z,71.00
2019-05-26T03:22:23.535Z,70.99
2019-05-26T03:25:29.356Z,71.16
2019-05-26T03:28:33.365Z,71.14
2019-05-26T03:31:37.724Z,71.22
2019-05-26T03:34:41.917Z,71.25
2019-05-26T03:37:46.043Z,71.29
2019-05-26T03:40:50.292Z,71.39
2019-05-26T03:43:54.178Z,71.48
2019-05-26T03:46:58.492Z,71.36
2019-05-26T03:50:02.460Z,71.20
2019-05-26T03:53:06.822Z,71.04
2019-05-26T03:56:10.925Z,70.95
2019-05-26T03:59:18.196Z,70.82
2019-05-26T04:02:22.529Z,70.83
2019-05-26T04:05:26.912Z,70.79
2019-05-26T04:08:30.916Z,70.67
2019-05-26T04:11:34.786Z,70.63
2019-05-26T04:14:39.375Z,70.52
2019-05-26T04:17:44.017Z,70.45
2019-05-26T04:20:48.329Z,70.40
2019-05-26T04:23:52.362Z,70.36
2019-05-26T04:26:57.118Z,70.29
2019-05-26T04:30:01.127Z,70.09
2019-05-26T04:33:05.519Z,69.88
2019-05-26T04:36:09.549Z,69.72
2019-05-26T04:39:13.855Z,69.66
2019-05-26T04:42:17.718Z,69.64
2019-05-26T04:45:21.672Z,69.60
2019-05-26T04:48:25.727Z,69.43
2019-05-26T04:51:29.665Z,69.22
2019-05-26T04:54:33.673Z,68.99
2019-05-26T04:57:38.420Z,68.57
2019-05-26T05:00:42.434Z,63.83
2019-05-26T05:03:46.364Z,59.14
2019-05-26T05:06:50.582Z,55.67
2019-05-26T05:09:54.516Z,53.16
2019-05-26T05:12:59.116Z,51.02
2019-05-26T05:16:03.576Z,49.32
2019-05-26T05:19:07.586Z,48.25
2019-05-26T05:22:11.681Z,47.16
2019-05-26T05:25:15.934Z,46.15
2019-05-26T05:28:19.894Z,44.88
2019-05-26T05:31:24.004Z,44.38
2019-05-26T05:34:28.013Z,43.88
2019-05-26T05:37:32.212Z,42.93
2019-05-26T05:40:36.578Z,42.60
2019-05-26T05:43:40.675Z,42.50
2019-05-26T05:46:44.656Z,42.75
2019-05-26T05:49:48.595Z,42.51
2019-05-26T05:52:52.925Z,42.37
2019-05-26T05:55:57.264Z,41.69
2019-05-26T05:59:01.224Z,40.68
2019-05-26T06:02:05.648Z,39.77
2019-05-26T06:05:09.781Z,38.76
2019-05-26T06:08:13.724Z,38.76
2019-05-26T06:11:17.739Z,38.56
2019-05-26T06:14:22.049Z,38.50
2019-05-26T06:17:26.061Z,38.26
2019-05-26T06:20:30.000Z,37.83
2019-05-26T06:23:36.832Z,37.38
2019-05-26T06:26:39.668Z,36.68
2019-05-26T06:29:57.899Z,36.03
2019-05-26T06:32:49.415Z,35.78
2019-05-26T06:35:53.481Z,35.25
2019-05-26T06:38:57.426Z,35.83
2019-05-26T06:42:02.359Z,35.42
2019-05-26T06:45:06.674Z,35.04
2019-05-26T06:48:11.310Z,34.53
2019-05-26T06:51:15.633Z,34.28
2019-05-26T06:54:19.890Z,34.03
2019-05-26T06:57:23.929Z,34.01
2019-05-26T07:00:27.903Z,34.35
2019-05-26T07:03:31.915Z,34.13
2019-05-26T07:06:35.941Z,34.08
2019-05-26T07:09:40.140Z,34.67
2019-05-26T07:12:44.527Z,34.57
2019-05-26T07:15:49.089Z,35.03
2019-05-26T07:18:53.365Z,35.00
2019-05-26T07:21:58.351Z,34.60
2019-05-26T07:25:02.470Z,34.05
2019-05-26T07:28:07.261Z,34.54
2019-05-26T07:31:11.280Z,34.53
2019-05-26T07:34:15.743Z,34.08
2019-05-26T07:37:20.153Z,34.10
2019-05-26T07:40:24.147Z,34.09
2019-05-26T07:43:28.422Z,34.28
2019-05-26T07:46:32.832Z,34.33
2019-05-26T07:49:37.378Z,34.45
2019-05-26T07:52:41.937Z,34.55
2019-05-26T07:55:46.107Z,34.37
2019-05-26T07:58:50.523Z,33.92
2019-05-26T08:01:54.668Z,33.77
2019-05-26T08:04:58.736Z,33.56
2019-05-26T08:08:12.795Z,33.81
2019-05-26T08:11:09.456Z,34.79
2019-05-26T08:14:13.783Z,36.09
2019-05-26T08:17:17.877Z,38.90
2019-05-26T08:20:21.893Z,40.78
2019-05-26T08:23:26.028Z,41.93
2019-05-26T08:26:30.027Z,42.39
2019-05-26T08:29:34.290Z,42.97
2019-05-26T08:32:38.592Z,42.79
2019-05-26T08:35:42.879Z,42.74
2019-05-26T08:38:47.238Z,42.82
2019-05-26T08:41:51.564Z,42.95
2019-05-26T08:44:55.884Z,42.06
2019-05-26T08:47:59.927Z,41.33
2019-05-26T08:51:04.007Z,40.87
2019-05-26T08:54:08.585Z,40.55
2019-05-26T08:57:12.597Z,40.24
2019-05-26T09:00:17.873Z,40.11
2019-05-26T09:03:21.984Z,39.75
2019-05-26T09:06:25.916Z,38.87
2019-05-26T09:09:30.159Z,37.93
2019-05-26T09:12:34.478Z,37.08
2019-05-26T09:15:38.903Z,36.89
2019-05-26T09:18:42.848Z,36.33
2019-05-26T09:21:47.018Z,35.81
2019-05-26T09:24:51.035Z,36.05
2019-05-26T09:27:55.993Z,36.36
2019-05-26T09:31:00.328Z,36.17
2019-05-26T09:34:04.576Z,36.18
2019-05-26T09:37:08.957Z,35.24
2019-05-26T09:40:14.482Z,34.74
2019-05-26T09:43:18.549Z,34.74
2019-05-26T09:46:22.581Z,34.41
2019-05-26T09:49:26.656Z,34.17
2019-05-26T09:52:30.707Z,34.01
2019-05-26T09:55:35.006Z,34.21
2019-05-26T09:58:38.943Z,34.08
2019-05-26T10:01:43.233Z,33.66
2019-05-26T10:04:47.106Z,33.94
2019-05-26T10:07:51.053Z,33.88
2019-05-26T10:10:55.101Z,33.49
2019-05-26T10:13:59.804Z,33.11
2019-05-26T10:17:04.023Z,32.83
2019-05-26T10:20:09.084Z,32.81
2019-05-26T10:23:13.091Z,32.88
2019-05-26T10:26:17.035Z,33.01
2019-05-26T10:29:21.015Z,32.73
2019-05-26T10:32:25.739Z,32.07
2019-05-26T10:35:29.761Z,32.06
2019-05-26T10:38:33.853Z,32.38
2019-05-26T10:41:37.860Z,31.98
2019-05-26T10:44:41.803Z,32.34
2019-05-26T10:47:46.153Z,32.67
2019-05-26T10:50:50.096Z,32.26
2019-05-26T10:53:54.608Z,32.22
2019-05-26T10:56:58.788Z,32.31
2019-05-26T11:00:02.822Z,32.39
2019-05-26T11:03:07.437Z,32.01
2019-05-26T11:06:11.780Z,32.29
2019-05-26T11:09:16.658Z,32.07
2019-05-26T11:12:21.016Z,31.89
2019-05-26T11:15:25.492Z,32.03
2019-05-26T11:18:29.346Z,31.83
2019-05-26T11:21:34.104Z,32.15
2019-05-26T11:24:38.565Z,32.17
2019-05-26T11:27:42.561Z,32.13
2019-05-26T11:30:46.627Z,31.86
2019-05-26T11:33:50.543Z,31.95
2019-05-26T11:36:54.485Z,31.68
2019-05-26T11:39:58.798Z,31.04
2019-05-26T11:43:15.628Z,30.39
2019-05-26T11:46:08.951Z,30.50
2019-05-26T11:49:13.196Z,30.08
2019-05-26T11:52:20.184Z,29.99
2019-05-26T11:55:23.433Z,29.80
2019-05-26T11:58:27.856Z,29.81
2019-05-26T12:01:32.131Z,30.16
2019-05-26T12:04:35.971Z,30.28
2019-05-26T12:07:40.480Z,29.89
2019-05-26T12:10:44.566Z,30.02
2019-05-26T12:13:48.755Z,29.52
2019-05-26T12:16:52.658Z,29.27
2019-05-26T12:19:57.038Z,28.65
2019-05-26T12:23:01.564Z,28.89
2019-05-26T12:26:05.727Z,29.09
2019-05-26T12:29:10.412Z,29.41
2019-05-26T12:32:14.858Z,30.31
2019-05-26T12:35:19.881Z,31.28
2019-05-26T12:38:24.205Z,31.17
2019-05-26T12:41:28.677Z,30.64
2019-05-26T12:44:32.716Z,30.79
2019-05-26T12:47:37.086Z,30.82
2019-05-26T12:50:41.931Z,30.73
2019-05-26T12:53:46.164Z,31.27
2019-05-26T12:56:50.676Z,31.53
2019-05-26T12:59:54.671Z,31.33
2019-05-26T13:02:59.004Z,30.83
2019-05-26T13:06:03.016Z,30.22
2019-05-26T13:09:09.701Z,30.01
2019-05-26T13:12:13.718Z,30.13
2019-05-26T13:15:18.280Z,29.76
2019-05-26T13:18:22.567Z,29.04
2019-05-26T13:21:26.874Z,28.65
2019-05-26T13:24:31.192Z,29.17
2019-05-26T13:27:35.360Z,28.84
2019-05-26T13:30:39.304Z,28.81
2019-05-26T13:33:43.236Z,29.36
2019-05-26T13:36:47.577Z,29.06
2019-05-26T13:39:52.193Z,29.09
2019-05-26T13:42:56.074Z,29.04
2019-05-26T13:46:00.324Z,28.81
2019-05-26T13:49:04.403Z,28.55
2019-05-26T13:52:09.804Z,28.71
2019-05-26T13:55:14.812Z,28.62
2019-05-26T13:58:19.153Z,28.92
2019-05-26T14:01:23.161Z,29.09
2019-05-26T14:04:27.332Z,28.91
2019-05-26T14:07:31.852Z,28.76
2019-05-26T14:10:36.724Z,28.46
2019-05-26T14:13:41.484Z,28.11
2019-05-26T14:16:46.766Z,28.01
2019-05-26T14:19:52.329Z,28.34
2019-05-26T14:22:56.263Z,28.45
2019-05-26T14:26:00.623Z,28.49
2019-05-26T14:29:05.039Z,28.43
2019-05-26T14:32:09.055Z,27.90
2019-05-26T14:35:13.690Z,27.27
2019-05-26T14:38:17.554Z,27.25
2019-05-26T14:41:22.128Z,27.86
2019-05-26T14:44:26.363Z,28.38
2019-05-26T14:47:30.474Z,28.25
2019-05-26T14:50:34.786Z,28.19
2019-05-26T14:53:38.882Z,28.22
2019-05-26T14:56:43.430Z,28.23
2019-05-26T14:59:47.862Z,28.21
2019-05-26T15:02:52.182Z,28.46
2019-05-26T15:06:05.400Z,28.65
2019-05-26T15:09:02.354Z,28.65
2019-05-26T15:12:06.799Z,28.11
2019-05-26T15:15:11.131Z,28.52
2019-05-26T15:18:15.278Z,28.31
2019-05-26T15:21:19.267Z,28.68
2019-05-26T15:24:23.583Z,28.92
2019-05-26T15:27:27.892Z,28.82
2019-05-26T15:30:31.926Z,28.52
2019-05-26T15:33:35.961Z,28.94
2019-05-26T15:36:40.243Z,29.01
2019-05-26T15:39:44.464Z,29.61
2019-05-26T15:42:48.483Z,29.89
2019-05-26T15:45:52.630Z,30.13
2019-05-26T15:48:56.857Z,30.39
2019-05-26T15:52:00.962Z,30.26
2019-05-26T15:55:05.385Z,30.25
2019-05-26T15:58:09.403Z,30.15
2019-05-26T16:01:13.542Z,30.37
2019-05-26T16:04:17.575Z,30.49
2019-05-26T16:07:21.852Z,30.66
2019-05-26T16:10:26.173Z,30.88
2019-05-26T16:13:30.592Z,31.45
2019-05-26T16:16:41.335Z,31.54
2019-05-26T16:19:40.879Z,31.34
2019-05-26T16:22:44.947Z,30.89
2019-05-26T16:25:48.928Z,30.54
2019-05-26T16:28:53.298Z,30.28
2019-05-26T16:31:57.411Z,30.15
2019-05-26T16:35:01.539Z,29.96
2019-05-26T16:38:05.681Z,30.29
2019-05-26T16:41:09.713Z,30.15
2019-05-26T16:44:14.126Z,30.06
2019-05-26T16:47:18.555Z,29.90
2019-05-26T16:50:22.656Z,29.73
2019-05-26T16:53:27.129Z,29.52
2019-05-26T16:56:31.720Z,29.38
2019-05-26T16:59:35.737Z,29.44
2019-05-26T17:02:39.751Z,29.29
2019-05-26T17:05:43.995Z,29.41
2019-05-26T17:08:48.264Z,29.56
2019-05-26T17:11:52.361Z,29.66
2019-05-26T17:14:57.091Z,29.96
2019-05-26T17:18:00.955Z,30.21
2019-05-26T17:21:05.583Z,30.37
2019-05-26T17:24:09.950Z,30.76
2019-05-26T17:27:14.308Z,31.28
2019-05-26T17:30:21.978Z,31.64
2019-05-26T17:33:24.815Z,31.95
2019-05-26T17:36:29.195Z,32.06
2019-05-26T17:39:33.195Z,32.08
2019-05-26T17:42:37.471Z,32.14
2019-05-26T17:45:41.727Z,32.53
2019-05-26T17:48:45.742Z,32.46
2019-05-26T17:51:49.992Z,32.63
2019-05-26T17:54:54.384Z,32.78
2019-05-26T17:57:58.437Z,32.82
2019-05-26T18:01:02.803Z,32.93
2019-05-26T18:04:07.124Z,33.14
2019-05-26T18:07:11.216Z,33.29
2019-05-26T18:10:15.522Z,33.55
2019-05-26T18:13:19.561Z,34.38
2019-05-26T18:16:23.676Z,35.01
2019-05-26T18:19:29.739Z,35.63
2019-05-26T18:22:34.071Z,36.17
2019-05-26T18:25:38.716Z,37.12
2019-05-26T18:28:43.343Z,38.00
2019-05-26T18:31:47.587Z,38.33
2019-05-26T18:34:52.089Z,38.90
2019-05-26T18:37:56.515Z,39.68
2019-05-26T18:41:01.683Z,40.25
2019-05-26T18:44:05.747Z,40.66
2019-05-26T18:47:09.949Z,40.97
2019-05-26T18:50:14.436Z,41.17
2019-05-26T18:53:18.928Z,41.37
2019-05-26T18:56:22.877Z,41.98
2019-05-26T18:59:26.913Z,42.62
2019-05-26T19:02:31.113Z,43.06
2019-05-26T19:05:38.309Z,43.90
2019-05-26T19:08:41.320Z,44.68
2019-05-26T19:11:45.330Z,44.96
2019-05-26T19:14:50.319Z,45.14
2019-05-26T19:17:54.967Z,44.98
2019-05-26T19:20:59.436Z,44.59
2019-05-26T19:24:03.448Z,44.37
2019-05-26T19:27:07.500Z,44.46
2019-05-26T19:30:12.129Z,44.96
2019-05-26T19:33:16.207Z,45.74
2019-05-26T19:36:20.387Z,46.51
2019-05-26T19:39:24.331Z,46.98
2019-05-26T19:42:28.345Z,47.50
2019-05-26T19:45:32.475Z,48.07
2019-05-26T19:48:37.541Z,48.26
2019-05-26T19:51:41.478Z,48.42
2019-05-26T19:54:45.934Z,48.54
2019-05-26T19:57:50.033Z,48.82
2019-05-26T20:00:54.459Z,49.15
2019-05-26T20:03:58.836Z,49.47
2019-05-26T20:07:03.314Z,49.80
2019-05-26T20:10:07.916Z,49.95
2019-05-26T20:13:11.945Z,50.25
2019-05-26T20:16:16.048Z,50.59
2019-05-26T20:19:20.401Z,50.83
2019-05-26T20:22:24.791Z,51.12
2019-05-26T20:25:29.676Z,51.41
2019-05-26T20:28:33.542Z,51.75
2019-05-26T20:31:37.483Z,52.00
2019-05-26T20:34:41.578Z,52.43
2019-05-26T20:37:45.843Z,52.66
2019-05-26T20:40:49.992Z,52.95
2019-05-26T20:43:54.158Z,53.18
2019-05-26T20:46:58.375Z,53.51
2019-05-26T20:50:02.399Z,53.81
2019-05-26T20:53:07.025Z,53.81
2019-05-26T20:56:11.213Z,54.23
2019-05-26T20:59:15.809Z,54.44
2019-05-26T21:02:20.064Z,54.77
2019-05-26T21:05:24.238Z,54.89
2019-05-26T21:08:28.234Z,55.07
2019-05-26T21:11:32.168Z,55.08
2019-05-26T21:14:36.386Z,55.50
2019-05-26T21:17:40.316Z,55.50
2019-05-26T21:20:44.529Z,55.82
2019-05-26T21:23:48.816Z,56.07
2019-05-26T21:26:52.768Z,56.27
2019-05-26T21:29:56.634Z,56.49
2019-05-26T21:33:00.736Z,56.77
2019-05-26T21:36:05.086Z,56.87
2019-05-26T21:39:09.475Z,56.98
2019-05-26T21:42:15.918Z,57.16
2019-05-26T21:45:19.898Z,57.42
2019-05-26T21:48:24.217Z,57.58
2019-05-26T21:51:28.247Z,57.81
2019-05-26T21:54:32.186Z,57.89
2019-05-26T21:57:36.208Z,58.10
2019-05-26T22:00:43.309Z,58.35
2019-05-26T22:03:47.364Z,58.56
2019-05-26T22:06:51.662Z,58.67
2019-05-26T22:09:55.701Z,58.74
2019-05-26T22:12:59.909Z,58.73
2019-05-26T22:16:04.028Z,58.98
2019-05-26T22:19:08.374Z,59.27
2019-05-26T22:22:12.417Z,59.79
2019-05-26T22:25:16.462Z,60.03
2019-05-26T22:28:20.417Z,60.26
2019-05-26T22:31:24.839Z,60.61
2019-05-26T22:34:29.038Z,60.96
2019-05-26T22:37:33.074Z,61.12
2019-05-26T22:40:37.012Z,61.01
2019-05-26T22:43:40.963Z,61.13
2019-05-26T22:46:45.201Z,61.18
2019-05-26T22:49:49.624Z,61.15
2019-05-26T22:52:53.889Z,61.24
2019-05-26T22:55:58.347Z,61.28
2019-05-26T22:59:02.661Z,61.24
2019-05-26T23:02:06.941Z,61.56
2019-05-26T23:05:11.572Z,61.64
2019-05-26T23:08:15.587Z,61.74
2019-05-26T23:11:19.660Z,62.03
2019-05-26T23:14:23.722Z,61.86
2019-05-26T23:17:27.995Z,61.77
2019-05-26T23:20:32.178Z,61.81
2019-05-26T23:23:36.302Z,61.91
2019-05-26T23:26:40.911Z,62.22
2019-05-26T23:29:45.227Z,62.26
2019-05-26T23:32:49.464Z,62.43
2019-05-26T23:35:53.409Z,62.44
2019-05-26T23:38:57.354Z,62.32
2019-05-26T23:42:01.819Z,62.34
2019-05-26T23:45:07.037Z,62.41
2019-05-26T23:48:11.640Z,62.29
2019-05-26T23:51:15.999Z,62.47
2019-05-26T23:54:20.731Z,62.51
2019-05-26T23:57:24.606Z,62.69
